Latest Coastal Weather Observations for Esperance

IDW60701

Issued at 5:03 am WST Wednesday 22 February 2017 (issued every 10 minutes, with the page automatically refreshed every 10 minutes)

About coastal observations | Map of coastal stations | Coastal observations for WA | Marine services | Other Formats
Station Details ID: 009789 Name: ESPERANCE Lat: -33.83 Lon: 121.89 Height: 25.0 m
Data from the previous 72 hours. | See also: Recent months at Esperance
Date/Time
WST
Temp
°C
Wind Pressure Rain since
9am
mm
Weather Cloud Vis
km
Sea
Height
m
Swell
Dir  Spd
kts
Gust
kts
hPa Trend Height
m
Period
s
Dir
22/05:00am 16.0 SW 11 19 1016.2 - 4.4 - Partly cloudy 10 - - - -
22/04:30am 16.3 SW 10 17 1015.7 - 4.4 - Partly cloudy 10 - - - -
22/04:00am 15.9 SW 9 14 1015.6 - 4.4 - Partly cloudy 10 - - - -
22/03:30am 16.0 SW 10 16 1015.4 - 4.4 - Partly cloudy 10 - - - -
22/03:00am 16.0 SW 10 16 1015.4 R 4.4 - Partly cloudy 10 - - - -
22/02:30am 16.1 SW 11 19 1015.1 - 4.4 - Partly cloudy 10 - - - -
22/02:00am 16.2 WSW 10 15 1015.1 - 4.4 - Partly cloudy 10 - - - -
22/01:30am 16.7 WSW 11 21 1015.0 - 4.4 - Partly cloudy 10 - - - -
22/01:00am 16.2 WSW 12 18 1014.8 - 4.4 - Partly cloudy 10 - - - -
22/12:30am 16.1 WSW 12 19 1014.8 - 4.4 - Partly cloudy 10 - - - -
22/12:00am 16.1 WSW 13 21 1014.8 R 4.4 - Partly cloudy 10 - - - -
 
Date/Time
WST
Temp
°C
Wind Pressure Rain since
9am
mm
Weather Cloud Vis
km
Sea
Height
m
Swell
Dir  Spd
kts
Gust
kts
hPa Trend Height
m
Period
s
Dir
21/11:30pm 15.9 WSW 15 27 1014.7 - 4.4 - Partly cloudy 10 - - - -
21/11:00pm 15.5 WSW 14 23 1014.2 - 4.4 - Partly cloudy 10 - - - -
21/10:30pm 15.1 WSW 13 22 1014.2 - 4.4 - Partly cloudy 10 - - - -
21/10:13pm 14.4 WSW 13 25 1014.2 - 4.4 - Partly cloudy 10 - - - -
21/10:00pm 14.0 WSW 16 26 1014.2 - 4.4 - Partly cloudy 6 - - - -
21/09:55pm 13.7 SW 15 26 1014.4 - 4.4 - Partly cloudy 6 - - - -
21/09:54pm 13.7 SW 15 26 1014.5 - 4.4 - Partly cloudy 7 - - - -
21/09:53pm 13.7 SW 14 26 1014.5 - 4.0 - Partly cloudy 9 - - - -
21/09:48pm 14.9 WSW 12 17 1014.3 - 4.0 - Partly cloudy 10 - - - -
21/09:30pm 14.8 WSW 15 28 1014.1 - 4.0 - Partly cloudy 4 - - - -
21/09:29pm 15.0 WSW 15 28 1014.1 - 4.0 - Partly cloudy 4 - - - -
21/09:28pm 15.5 WSW 14 27 1014.2 - 3.8 - Partly cloudy 7 - - - -
21/09:00pm 16.8 WSW 16 27 1013.5 R 3.2 - Cloudy 10 - - - -
21/08:30pm 17.1 WSW 18 28 1013.1 - 3.2 - Partly cloudy 10 - - - -
21/08:01pm 16.7 WSW 17 29 1012.9 - 3.2 - Partly cloudy 10 - - - -
21/08:00pm 16.7 WSW 17 26 1013.0 - 3.2 - Partly cloudy 10 - - - -
21/07:30pm 16.9 WSW 16 26 1012.6 - 3.2 - Partly cloudy 10 - - - -
21/07:00pm 16.6 W 15 27 1012.3 - 3.2 - Partly cloudy 10 - - - -
21/06:30pm 16.4 WSW 16 27 1011.9 - 3.2 - Partly cloudy 10 - - - -
21/06:07pm 16.1 WSW 15 27 1011.8 - 3.2 - Partly cloudy 10 - - - -
21/06:00pm 17.0 WSW 14 23 1011.6 R 3.2 - Partly cloudy 10 - - - -
21/05:38pm 17.0 WSW 15 27 1011.3 - 3.2 - Partly cloudy 10 - - - -
21/05:30pm 16.7 WSW 14 21 1011.2 - 3.2 - Partly cloudy 10 - - - -
21/05:00pm 17.0 WSW 15 26 1010.9 - 3.2 - Partly cloudy 10 - - - -
21/04:33pm 17.4 WSW 15 26 1010.3 - 3.2 - Partly cloudy 10 - - - -
21/04:30pm 17.4 WSW 14 24 1010.4 - 3.2 - Partly cloudy 10 - - - -
21/04:00pm 18.0 WSW 16 26 1009.8 - 3.2 - - 10 - - - -
21/03:30pm 18.1 WSW 16 27 1009.4 - 3.2 - Partly cloudy 10 - - - -
21/03:00pm 17.3 WSW 17 29 1009.2 R 3.2 - Cloudy 10 - - - -
21/02:30pm 18.2 WSW 17 30 1009.0 - 3.2 - Mostly clear 10 - - - -
21/02:00pm 17.3 WSW 16 33 1008.8 - 3.2 - Mostly clear 10 - - - -
21/01:34pm 17.3 W 17 35 1008.6 - 3.2 - Mostly clear 10 - - - -
21/01:30pm 17.4 W 13 25 1008.2 - 3.2 - Partly cloudy 10 - - - -
21/01:00pm 15.2 W 14 22 1008.5 - 3.0 - Mostly clear 10 - - - -
21/12:51pm 14.4 W 15 25 1008.4 - 3.0 - Partly cloudy 10 - - - -
21/12:30pm 13.9 WSW 11 19 1008.5 - 3.0 - Mostly clear 10 - - - -
21/12:11pm 13.6 WSW 14 21 1008.5 - 2.8 Showers Mostly clear 7 - - - -
21/12:00pm 14.1 SW 14 23 1008.3 R 2.6 Recent precip. Cloudy 8 - - - -
21/11:30am 14.0 WSW 15 23 1008.0 - 2.2 Showers Mostly clear 8 - - - -
21/11:00am 13.9 SW 17 30 1007.5 - 0.8 - Mostly clear 4 - - - -
21/10:49am 16.1 WSW 14 23 1007.1 - 0.2 Showers Mostly clear 7 - - - -
21/10:30am 17.1 WSW 15 26 1006.9 - 0.0 Showers Mostly cloudy 10 - - - -
21/10:00am 18.0 W 16 31 1006.8 - 0.0 - Partly cloudy 10 - - - -
21/09:48am 18.8 W 15 26 1006.5 - 0.0 - Mostly cloudy 10 - - - -
21/09:30am 18.5 W 15 23 1006.6 - 0.0 - Partly cloudy 10 - - - -
21/09:00am 18.7 W 14 23 1006.2 S 11.2 Recent precip. Partly cloudy 10 - - - -
21/08:30am 16.9 WSW 15 22 1005.8 - 11.0 - Mostly clear 10 - - - -
21/08:17am 17.0 W 13 29 1006.0 - 11.0 Showers Mostly clear 7 - - - -
21/08:00am 18.2 WNW 9 12 1005.5 - 11.0 - Mostly clear 10 - - - -
21/07:30am 18.2 WNW 7 10 1005.5 - 11.0 - Mostly clear 10 - - - -
21/07:00am 16.8 WNW 6 8 1005.3 - 11.0 - Mostly clear 10 - - - -
21/06:30am 16.4 W 5 7 1004.9 - 11.0 - Partly cloudy 10 - - - -
21/06:00am 16.3 WNW 5 7 1005.6 F 10.8 - Cloudy 10 - - - -
21/05:55am 16.3 W 5 7 1005.5 - 10.8 - Partly cloudy 10 - - - -
21/05:31am 16.1 WSW 6 8 1005.6 - 10.8 - Partly cloudy 5 - - - -
21/05:30am 16.2 WSW 6 9 1005.6 - 10.8 - Partly cloudy 5 - - - -
21/05:21am 16.2 SW 7 11 1005.5 - 10.8 - Partly cloudy 7 - - - -
21/05:18am 16.2 SW 7 11 1005.4 - 10.8 - Partly cloudy 10 - - - -
21/05:00am 16.4 SSW 9 13 1005.1 - 10.8 - Partly cloudy 5 - - - -
21/04:30am 16.7 SSW 8 12 1004.9 - 10.8 - Partly cloudy 4 - - - -
21/04:00am 17.3 SW 7 11 1004.9 - 10.4 - Partly cloudy 3 - - - -
21/03:30am 17.5 SSW 6 9 1004.7 - 10.4 - Partly cloudy 4 - - - -
21/03:00am 17.9 SW 5 7 1004.8 F 9.6 - Cloudy 2 - - - -
21/02:42am 18.0 SW 5 8 1005.2 - 9.6 - Cloudy 7 - - - -
21/02:30am 18.1 WSW 4 5 1005.3 - 9.6 - Partly cloudy 10 - - - -
21/02:00am 18.2 SW 1 3 1005.2 - 9.6 - Cloudy 10 - - - -
21/01:30am 18.2 CALM 0 0 1005.7 - 9.6 - Cloudy 10 - - - -
21/01:25am 18.2 CALM 0 0 1006.0 - 9.6 - Cloudy 10 - - - -
21/01:00am 18.3 CALM 0 0 1007.2 - 9.2 - Cloudy 8 - - - -
21/12:30am 18.2 ENE 1 4 1007.7 - 8.6 - Partly cloudy 6 - - - -
21/12:18am 18.2 NE 4 7 1008.2 - 8.2 - Cloudy 7 - - - -
21/12:00am 18.1 NE 6 9 1008.7 F 8.0 - Cloudy 10 - - - -
 
Date/Time
WST
Temp
°C
Wind Pressure Rain since
9am
mm
Weather Cloud Vis
km
Sea
Height
m
Swell
Dir  Spd
kts
Gust
kts
hPa Trend Height
m
Period
s
Dir
20/11:30pm 18.2 SSE 4 7 1008.8 - 8.0 - Cloudy 9 - - - -
20/11:00pm 18.3 SE 8 11 1008.8 - 8.0 - Cloudy 9 - - - -
20/10:30pm 18.2 SE 7 10 1008.5 - 8.0 - Cloudy 9 - - - -
20/10:00pm 18.0 SE 6 11 1008.7 - 8.0 - Partly cloudy 9 - - - -
20/09:53pm 17.9 SSE 9 12 1008.9 - 8.0 - Partly cloudy 8 - - - -
20/09:30pm 17.8 SSE 6 7 1009.2 - 7.8 - Partly cloudy 6 - - - -
20/09:11pm 18.0 WSW 6 11 1010.9 - 6.4 - Partly cloudy 7 - - - -
20/09:00pm 17.9 S 5 9 1010.0 F 6.2 Recent precip. Cloudy 9 - - - -
20/08:58pm 17.8 S 6 11 1009.9 - 6.2 - Partly cloudy 9 - - - -
20/08:31pm 17.8 SSE 8 12 1009.2 - 6.0 - Partly cloudy 6 - - - -
20/08:30pm 17.8 SSE 8 12 1009.3 - 6.0 - Partly cloudy 6 - - - -
20/08:00pm 17.8 SSW 8 14 1010.0 - 5.6 - Partly cloudy 7 - - - -
20/07:30pm 18.4 ESE 5 8 1010.4 - 3.0 - Partly cloudy 6 - - - -
20/07:29pm 18.4 SE 5 8 1010.5 - 3.0 - Partly cloudy 7 - - - -
20/07:07pm 18.3 SE 6 10 1009.4 - 2.4 - Partly cloudy 9 - - - -
20/07:00pm 18.2 ESE 5 8 1009.7 - 2.4 - Partly cloudy 8 - - - -
20/06:43pm 18.5 SW 3 6 1010.3 - 2.0 - Partly cloudy 7 - - - -
20/06:30pm 18.4 S 6 8 1010.1 - 1.6 - Partly cloudy 9 - - - -
20/06:06pm 18.3 ESE 6 9 1009.5 - 1.6 - Partly cloudy 10 - - - -
20/06:00pm 18.3 E 5 9 1009.7 R 1.6 Recent precip. Cloudy 10 - - - -
20/05:30pm 18.4 E 4 26 1010.6 - 1.6 - Partly cloudy 9 - - - -
20/05:27pm 18.4 ESE 5 26 1010.6 - 1.4 - Partly cloudy 10 - - - -
20/05:03pm 18.6 SSW 7 13 1010.2 - 0.6 - Partly cloudy 7 - - - -
20/05:00pm 18.6 SW 8 13 1010.6 - 0.4 - Partly cloudy 10 - - - -
20/04:30pm 19.5 SSW 12 19 1009.9 - 0.0 - Cloudy 10 - - - -
20/04:00pm 20.6 SSW 12 19 1009.6 - 0.0 - Cloudy 10 - - - -
20/03:30pm 21.3 SSW 11 16 1009.2 - 0.0 - Partly cloudy 10 - - - -
20/03:00pm 20.9 SSW 11 16 1009.0 R 0.0 - Mostly cloudy 10 - - - -
20/02:30pm 21.9 SSW 10 16 1008.9 - 0.0 - Partly cloudy 10 - - - -
20/02:00pm 21.6 SW 11 16 1009.5 - 0.0 - Partly cloudy 10 - - - -
20/01:30pm 21.7 SW 11 16 1010.0 - 0.0 Thunder Mostly clear 10 - - - -
20/01:00pm 22.8 SW 10 17 1010.3 - 0.0 - Mostly clear 10 - - - -
20/12:54pm 22.9 SW 9 13 1010.2 - 0.0 Thunder Mostly clear 10 - - - -
20/12:30pm 23.9 SW 12 17 1010.3 - 0.0 - Mostly clear 10 - - - -
20/12:00pm 23.6 WSW 12 19 1010.2 F 0.0 - Partly cloudy 10 - - - -
20/11:30am 24.0 WSW 11 15 1010.4 - 0.0 - Partly cloudy 10 - - - -
20/11:00am 28.3 SSE 7 10 1010.3 - 0.0 - - 10 - - - -
20/10:30am 30.3 NW 7 10 1010.6 - 0.0 - - 10 - - - -
20/10:00am 27.1 SW 5 8 1011.1 - 0.0 - - 10 - - - -
20/09:30am 28.3 W 5 8 1011.3 - 0.0 - - 10 - - - -
20/09:00am 27.4 W 5 9 1011.6 R 0.0 - Mostly clear 10 - - - -
20/08:30am 25.9 WNW 8 13 1011.9 - 0.0 - Partly cloudy 10 - - - -
20/08:00am 25.7 N 12 17 1010.7 - 0.0 - Partly cloudy 10 - - - -
20/07:30am 24.5 N 15 23 1010.5 - 0.0 - Partly cloudy 10 - - - -
20/07:00am 22.8 N 14 22 1010.8 - 0.0 - Partly cloudy 10 - - - -
20/06:30am 21.5 N 16 23 1010.6 - 0.0 - Partly cloudy 10 - - - -
20/06:00am 21.1 N 15 20 1010.7 F 0.0 - Mostly cloudy 10 - - - -
20/05:30am 20.3 N 13 18 1010.8 - 0.0 - Partly cloudy 10 - - - -
20/05:00am 20.1 N 13 18 1010.7 - 0.0 - - 10 - - - -
20/04:30am 20.0 N 16 21 1010.6 - 0.0 - - 10 - - - -
20/04:00am 20.0 NNE 13 17 1010.6 - 0.0 - - 10 - - - -
20/03:30am 19.4 NNE 10 17 1011.0 - 0.0 - - 10 - - - -
20/03:00am 19.3 NNE 10 15 1011.2 F 0.0 - Mostly clear 10 - - - -
20/02:30am 19.3 NNE 12 18 1011.4 - 0.0 - - 10 - - - -
20/02:00am 19.5 NNE 13 18 1011.7 - 0.0 - - 10 - - - -
20/01:30am 19.7 NNE 9 13 1011.9 - 0.0 - - 10 - - - -
20/01:00am 19.7 NNE 9 12 1012.3 - 0.0 - - 10 - - - -
20/12:30am 19.9 NNE 13 19 1012.5 - 0.0 - - 10 - - - -
20/12:00am 19.7 NNE 12 17 1013.0 F 0.0 - - 10 - - - -
 
Date/Time
WST
Temp
°C
Wind Pressure Rain since
9am
mm
Weather Cloud Vis
km
Sea
Height
m
Swell
Dir  Spd
kts
Gust
kts
hPa Trend Height
m
Period
s
Dir
19/11:30pm 19.7 NNE 11 16 1013.3 - 0.0 - - 10 - - - -
19/11:00pm 19.9 NE 9 13 1013.7 - 0.0 - - 10 - - - -
19/10:30pm 20.1 NE 8 13 1014.6 - 0.0 - - 10 - - - -
19/10:00pm 20.0 NE 9 12 1014.4 - 0.0 - - 10 - - - -
19/09:30pm 20.2 NE 10 15 1014.9 - 0.0 - - 10 - - - -
19/09:00pm 20.7 ENE 8 13 1015.3 F 0.0 - Cloudy 10 - - - -
19/08:30pm 20.7 E 6 9 1015.2 - 0.0 - - 10 - - - -
19/08:00pm 20.5 E 6 11 1015.1 - 0.0 - - 10 - - - -
19/07:30pm 20.8 ESE 8 12 1015.1 - 0.0 - - 10 - - - -
19/07:00pm 21.0 ESE 8 12 1015.1 - 0.0 - - 10 - - - -
19/06:30pm 21.4 ESE 10 14 1015.2 - 0.0 - - 10 - - - -
19/06:00pm 22.3 ESE 11 17 1015.1 F 0.0 - Partly cloudy 10 - - - -
19/05:30pm 22.2 ESE 14 17 1015.2 - 0.0 - - 10 - - - -
19/05:00pm 23.0 SE 13 18 1015.1 - 0.0 - - 10 - - - -
19/04:30pm 23.7 SE 13 18 1015.2 - 0.0 - - 10 - - - -
19/04:00pm 23.9 SE 13 19 1015.4 - 0.0 - - 10 - - - -
19/03:30pm 24.7 SE 14 19 1015.6 - 0.0 - - 10 - - - -
19/03:00pm 24.5 SE 13 18 1015.7 F 0.0 - - 10 - - - -
19/02:30pm 25.0 SE 14 18 1015.9 - 0.0 - - 10 - - - -
19/02:00pm 24.7 SE 12 17 1016.5 - 0.0 - - 10 - - - -
19/01:30pm 24.5 SSE 11 14 1016.8 - 0.0 - - 10 - - - -
19/01:00pm 24.3 SE 11 14 1017.2 - 0.0 - - 10 - - - -
19/12:30pm 26.5 NNE 6 11 1017.6 - 0.0 - - 10 - - - -
19/12:00pm 27.5 N 8 11 1017.9 F 0.0 - - 10 - - - -
19/11:30am 27.0 N 10 13 1018.3 - 0.0 - - 10 - - - -
19/11:00am 25.7 N 10 16 1018.9 - 0.0 - - 10 - - - -
19/10:30am 24.8 N 8 12 1019.5 - 0.0 - - 10 - - - -
19/10:00am 23.2 NNE 8 13 1020.1 - 0.0 - - 10 - - - -
19/09:30am 22.6 NNE 9 13 1020.4 - 0.0 - - 10 - - - -
19/09:00am 20.4 NNE 11 16 1020.6 F 0.0 - - 10 - - - -
19/08:30am 19.0 NNE 13 18 1021.1 - 0.0 - - 10 - - - -
19/08:00am 17.8 NNE 12 16 1021.3 - 0.0 - - 10 - - - -
19/07:30am 16.3 NNE 14 21 1021.5 - 0.0 - - 10 - - - -
19/07:00am 15.3 NNE 12 17 1021.6 - 0.0 - - 10 - - - -
19/06:30am 14.4 NNE 9 12 1021.8 - 0.0 - - 10 - - - -
19/06:00am 13.9 NNE 9 12 1021.9 F 0.0 - Mostly clear 10 - - - -
19/05:30am 13.5 NNE 8 11 1021.9 - 0.0 - - 10 - - - -

Other Formats:

Comma delimited format used in spreadsheet applications
http://www.bom.gov.au/fwo/IDW60701/IDW60701.94638.axf

JavaScript Object Notation format (JSON) in row-major order
http://www.bom.gov.au/fwo/IDW60701/IDW60701.94638.json